Tiempo atmosférico en la estación meteorológica de Mogán, Puerto, Las Palmas (10 m.)



Fecha
DESCASC
Temp. máxima en grados centígrados (hora)
DESCASC
Temp. mínima en grados centígrados (hora)
DESCASC
Temp. media en grados centígrados
DESCASC
Racha de viento máxima en m/sg (hora)
DESCASC
Velocidad máxima media en intervalos de 10 minutos(hora)
DESCASC
Precipitaciones diarias en mm
DESCASC
Precipitaciones de 00:00 a 06:00 en mm
DESCASC
Precipitaciones de 06:00 a 12:00 en mm
DESCASC
Precipitaciones de 12:00 a 18:00 en mm
DESCASC
Precipitaciones de 18:00 a 24:00 en mm
DESCASC
29-10-2020 25.7 (14:00) 19.7 (07:20) 22.7 5.83 (15:20) 5 (15:20) 0 0 0 0 0
28-10-2020 25.8 (12:40) 21.1 (03:20) 23.4 6.67 (14:20) 5 (14:10) -- -- -- -- --
27-10-2020 25 (10:00) 20.8 (00:00) 22.9 6.39 (16:10) 5 (16:30) -- -- -- -- --
26-10-2020 24.9 (15:00) 20.9 (00:00) 22.9 6.11 (22:10) 3.33 (14:40) -- -- -- -- --
25-10-2020 25.5 (09:50) 18.9 (00:00) 22.2 6.39 (21:10) 4.72 (17:40) -- -- -- -- --
24-10-2020 24.8 (13:50) 18.4 (00:00) 21.6 5.56 (16:50) 4.44 (05:50) -- -- -- -- --
23-10-2020 25.2 (10:50) 17.9 (00:00) 21.6 8.06 (14:50) 6.11 (15:00) -- -- -- -- --
22-10-2020 27.4 (12:10) 19 (00:00) 23.2 7.5 (14:40) 5.83 (13:50) -- -- -- -- --
21-10-2020 26.2 (12:00) 21.6 (00:00) 23.9 8.61 (11:30) 6.39 (11:30) -- -- -- -- --
20-10-2020 27.6 (12:30) 21.9 (00:00) 24.8 7.78 (11:10) 5 (11:10) -- -- -- -- --
19-10-2020 27.3 (17:50) 19.5 (00:00) 23.4 8.61 (08:20) 3.89 (13:30) -- -- -- -- --
18-10-2020 24.8 (16:20) 19.7 (00:00) 22.3 5.83 (12:50) 4.72 (12:50) -- -- -- -- --
17-10-2020 24.8 (09:40) 20.8 (00:00) 22.8 9.17 (13:20) 6.94 (13:10) -- -- -- -- --
16-10-2020 25.5 (10:30) 22.1 (00:00) 23.8 8.89 (16:00) 6.11 (15:40) -- -- -- -- --
15-10-2020 25.6 (11:00) 21.4 (00:00) 23.5 8.61 (14:00) 6.39 (14:00) -- -- -- -- --
14-10-2020 27.2 (14:30) 22 (00:00) 24.6 8.89 (16:20) 7.22 (16:20) -- -- -- -- --
13-10-2020 28.2 (17:00) 22.9 (00:00) 25.6 9.44 (17:20) 7.5 (17:20) -- -- -- -- --
12-10-2020 31.8 (16:00) 21.1 (00:00) 26.4 7.22 (13:20) 5.56 (11:50) -- -- -- -- --
11-10-2020 28.5 (16:00) 20.9 (00:00) 24.7 4.72 (05:20) 3.06 (05:20) -- -- -- -- --
10-10-2020 27.3 (14:00) 21.2 (00:00) 24.3 5.28 (20:00) 4.17 (19:30) -- -- -- -- --
09-10-2020 27.9 (11:30) 21.8 (00:00) 24.8 5 (19:00) 4.72 (19:40) -- -- -- -- --
08-10-2020 28.2 (16:00) 21 (00:00) 24.6 6.39 (22:50) 5 (22:40) -- -- -- -- --
07-10-2020 27.2 (15:10) 20.9 (00:00) 24.1 4.44 (18:20) 3.33 (18:20) -- -- -- -- --
06-10-2020 22.9 (00:10) 20.2 (00:00) 21.6 8.06 (16:20) 6.11 (17:20) -- -- -- -- --
05-10-2020 26.5 (13:30) 20.9 (00:00) 23.7 8.06 (15:10) 5.83 (15:10) -- -- -- -- --
04-10-2020 26.8 (15:40) 21.3 (00:00) 24 10 (17:10) 8.06 (17:10) -- -- -- -- --
03-10-2020 27.7 (12:40) 21 (00:00) 24.4 6.39 (14:10) 5.83 (19:00) -- -- -- -- --
02-10-2020 27.9 (17:10) 20.5 (00:00) 24.2 8.61 (19:20) 6.39 (19:00) -- -- -- -- --
01-10-2020 27.1 (12:30) 20.6 (00:00) 23.9 6.39 (21:20) 4.72 (15:20) -- -- -- -- --

Gráficas

Temp. máximas Temp. mínimas Temp. medias Precipitaciones Rachas de viento máximas Velocidades máximas media en intervalos de 10 minutos

Datos horarios

Fecha y hora oficial Temperatura (ºC) Velocidad del viento (km/h) Dirección del viento Racha (km/h) Dirección de racha Precipitación (mm) Presión (hPa) Tendencia (hPa) Humedad (%)
2020-10-30 23:00:00 21.5 12 Norte 15 Norte 0 -- -- 64
2020-10-30 22:00:00 22.5 5 Norte 10 Este 0 -- -- 66
2020-10-30 21:00:00 22.3 6 Sudeste 9 Sudeste 0 -- -- 66
2020-10-30 20:00:00 22.4 2 Este 17 Oeste 0 -- -- 66
2020-10-30 19:00:00 22.2 14 Oeste 18 Noroeste 0 -- -- 66
2020-10-30 18:00:00 23.1 5 Oeste 9 Oeste 0 -- -- 60
2020-10-30 17:00:00 24.2 5 Sudoeste 8 Sudoeste 0 -- -- 57
2020-10-30 16:00:00 24.6 5 Sudoeste 10 Sudoeste 0 -- -- 58
2020-10-30 15:00:00 24.7 6 Sudoeste 11 Sudoeste 0 -- -- 58
2020-10-30 14:00:00 24.3 6 Sudoeste 12 Sudoeste 0 -- -- 60
2020-10-30 13:00:00 24.4 6 Sudoeste 10 Sudoeste 0 -- -- 60
2020-10-30 12:00:00 25.4 5 Sur 12 Sur 0 -- -- 58
2020-10-30 11:00:00 23.7 7 Sudeste 13 Este 0 -- -- 61
2020-10-30 10:00:00 23.7 3 Sur 11 Norte 0 -- -- 57
2020-10-30 09:00:00 19.8 8 Norte 16 Norte 0 -- -- 59
2020-10-30 08:00:00 18.6 14 Norte 18 Norte 0 -- -- 62
2020-10-30 07:00:00 18.2 15 Norte 19 Norte 0 -- -- 64
2020-10-30 06:00:00 18.5 14 Norte 17 Norte 0 -- -- 64
2020-10-30 05:00:00 19 14 Norte 18 Norte 0 -- -- 64
2020-10-30 04:00:00 19 14 Norte 17 Norte 0 -- -- 65
2020-10-30 03:00:00 19.3 13 Norte 17 Norte 0 -- -- 65
2020-10-30 02:00:00 19.2 13 Norte 15 Norte 0 -- -- 65
2020-10-30 01:00:00 19.8 11 Norte 15 Norte 0 -- -- 66
2020-10-30 00:00:00 20 11 Norte 13 Norte 0 -- -- 66
2020-10-29 23:00:00 20.3 9 Norte 13 Norte 0 -- -- 65
2020-10-29 22:00:00 21.1 6 Norte 8 Norte 0 -- -- 65
2020-10-29 21:00:00 21.8 4 Sudeste 10 Sur 0 -- -- 65
2020-10-29 20:00:00 21.8 3 Sudeste 10 Este 0 -- -- 63
2020-10-29 19:00:00 22.1 7 Sudeste 14 Sudeste 0 -- -- 62
2020-10-29 18:00:00 22.9 5 Sur 10 Sur 0 -- -- 57
2020-10-29 17:00:00 23.8 7 Sur 17 Sudeste 0 -- -- 56
2020-10-29 16:00:00 23.4 15 Sudeste 21 Sudeste 0 -- -- 56
2020-10-29 15:00:00 24.1 14 Sudeste 17 Sudeste 0 -- -- 54
2020-10-29 14:00:00 25.7 10 Sudeste 14 Sudeste 0 -- -- 51
2020-10-29 13:00:00 23.4 9 Sur 14 Sudoeste 0 -- -- 52
2020-10-29 12:00:00 25 7 Sudoeste 14 Sudoeste 0 -- -- 49
2020-10-29 11:00:00 24.8 6 Sudoeste 17 Oeste 0 -- -- 50
2020-10-29 10:00:00 23.8 11 Oeste 17 Oeste 0 -- -- 52
2020-10-29 09:00:00 22.7 8 Nordeste 18 Nordeste 0 -- -- 52
2020-10-29 08:00:00 20.5 12 Norte 17 Norte 0 -- -- 55
2020-10-29 07:00:00 20.1 9 Norte 14 Nordeste 0 -- -- 55
2020-10-29 06:00:00 20.8 9 Norte 13 Norte 0 -- -- 54
2020-10-29 05:00:00 21.5 8 Nordeste 14 Nordeste 0 -- -- 54
2020-10-29 04:00:00 21.7 8 Norte 15 Nordeste 0 -- -- 53
2020-10-29 03:00:00 21.6 7 Norte 12 Norte 0 -- -- 53
2020-10-29 02:00:00 22.2 5 Sudeste 17 Sur 0 -- -- 55
2020-10-29 01:00:00 22 5 Nordeste 9 Nordeste 0 -- -- 55
2020-10-29 00:00:00 21.9 4 Nordeste 11 Norte 0 -- -- 55
2020-10-28 23:00:00 22.2 5 Oeste 17 Sur 0 -- -- 56
2020-10-28 22:00:00 22.3 11 Sur 15 Sur 0 -- -- 59
2020-10-28 21:00:00 22.3 0 Calma 9 Sudeste 0 -- -- 60
2020-10-28 20:00:00 22.1 8 Sudeste 15 Este 0 -- -- 60
2020-10-28 19:00:00 22.2 10 Sudeste 16 Este 0 -- -- 59
2020-10-28 18:00:00 23.1 13 Sudeste 19 Este 0 -- -- 56
2020-10-28 17:00:00 23.1 8 Sudeste 12 Sudeste 0 -- -- 54
2020-10-28 16:00:00 24.3 6 Sur 18 Sur 0 -- -- 54
2020-10-28 15:00:00 23.5 14 Sur 24 Sur 0 -- -- 54
2020-10-28 14:00:00 23.5 12 Sudoeste 20 Sudoeste 0 -- -- 55
2020-10-28 13:00:00 24 8 Sudoeste 12 Sudoeste 0 -- -- 50
2020-10-28 12:00:00 23.3 8 Sudoeste 12 Sudoeste 0 -- -- 52
2020-10-28 11:00:00 23 6 Sudoeste 10 Sudoeste 0 -- -- 53
2020-10-28 10:00:00 22.6 3 Sudeste 9 Nordeste 0 -- -- 52
2020-10-28 09:00:00 22 4 Nordeste 15 Nordeste 0 -- -- 52
2020-10-28 08:00:00 21.5 8 Nordeste 12 Norte 0 -- -- 52
2020-10-28 07:00:00 21.4 8 Nordeste 15 Nordeste 0 -- -- 54
2020-10-28 06:00:00 21.5 10 Nordeste 17 Norte 0 -- -- 54
2020-10-28 05:00:00 21.6 0 Calma 17 Sur 0 -- -- 61
2020-10-28 04:00:00 21.6 4 Nordeste 12 Nordeste 0 -- -- 57
2020-10-28 03:00:00 21.5 0 Calma 13 Sur 0 -- -- 63
2020-10-28 02:00:00 21.9 6 Sur 11 Sur 0 -- -- 62
2020-10-28 01:00:00 21.9 8 Sudeste 13 Sudoeste 0 -- -- 62
2020-10-28 00:00:00 22.1 8 Sur 18 Oeste 0 -- -- 63
2020-10-27 23:00:00 22.3 7 Sur 17 Sudoeste 0 -- -- 63
2020-10-27 22:00:00 22.4 12 Sudoeste 20 Sudoeste 0 -- -- 65
2020-10-27 21:00:00 22.3 13 Sudoeste 18 Oeste 0 -- -- 64
2020-10-27 20:00:00 22.4 12 Sudoeste 23 Sudoeste 0 -- -- 63
2020-10-27 19:00:00 22.5 17 Sudoeste 23 Sur 0 -- -- 65
2020-10-27 18:00:00 22.6 14 Sur 20 Sudoeste 0 -- -- 63
2020-10-27 17:00:00 23.3 16 Sudoeste 23 Sudoeste 0 -- -- 62
2020-10-27 16:00:00 24.1 14 Sur 19 Sur 0 -- -- 58
2020-10-27 15:00:00 23.5 12 Sudeste 19 Sudeste 0 -- -- 61
2020-10-27 14:00:00 24.7 13 Sur 19 Sudoeste 0 -- -- 57
2020-10-27 13:00:00 23.9 14 Sudoeste 19 Sudoeste 0 -- -- 58
2020-10-27 12:00:00 23.7 13 Sudoeste 17 Sudoeste 0 -- -- 59
2020-10-27 11:00:00 24.2 8 Sudoeste 13 Sudoeste 0 -- -- 57
2020-10-27 10:00:00 24.6 4 Sudoeste 13 Nordeste 0 -- -- 56
2020-10-27 09:00:00 22.1 10 Nordeste 16 Nordeste 0 -- -- 57
2020-10-27 08:00:00 21.3 9 Norte 15 Norte 0 -- -- 60
2020-10-27 07:00:00 21 8 Norte 11 Norte 0 -- -- 61
2020-10-27 06:00:00 21.3 7 Norte 13 Norte 0 -- -- 60
2020-10-27 05:00:00 21 10 Norte 12 Norte 0 -- -- 66
2020-10-27 04:00:00 21.5 0 Calma 7 Sudoeste 0 -- -- 65
2020-10-27 03:00:00 22 4 Oeste 10 Sudoeste 0 -- -- 65
2020-10-27 02:00:00 22.2 6 Sudoeste 10 Sur 0 -- -- 64
2020-10-27 01:00:00 22.3 6 Sur 13 Sudoeste 0 -- -- 65
2020-10-27 00:00:00 22.2 7 Sudoeste 13 Sur 0 -- -- 65
2020-10-26 23:00:00 22.6 8 Sudeste 22 Este 0 -- -- 65
2020-10-26 22:00:00 22.4 8 Sudeste 13 Sur 0 -- -- 65
2020-10-26 21:00:00 22.1 2 Sudeste 8 Sudoeste 0 -- -- 66
2020-10-26 20:00:00 22.4 6 Sudoeste 14 Sudoeste 0 -- -- 65
2020-10-26 19:00:00 22.5 5 Sur 12 Sudeste 0 -- -- 62
2020-10-26 18:00:00 23.6 6 Este 11 Sur 0 -- -- 61
2020-10-26 17:00:00 24.3 5 Sur 14 Sudoeste 0 -- -- 59
2020-10-26 16:00:00 23.8 9 Sudoeste 16 Sudoeste 0 -- -- 61
2020-10-26 15:00:00 24.7 8 Oeste 20 Sudoeste 0 -- -- 60
2020-10-26 14:00:00 23.9 11 Sudoeste 16 Sudoeste 0 -- -- 61
2020-10-26 13:00:00 24.1 9 Sudoeste 15 Sudoeste 0 -- -- 60
2020-10-26 12:00:00 23.9 11 Sudoeste 17 Sudoeste 0 -- -- 61
2020-10-26 11:00:00 23.3 7 Sudoeste 14 Sudoeste 0 -- -- 62
2020-10-26 10:00:00 23.5 10 Sudoeste -- -- -- -- -- 63
2020-10-26 09:00:00 22.1 8 Sudoeste 13 Sudoeste 0 -- -- 64
2020-10-26 08:00:00 21.1 9 Sudoeste 13 Sudoeste 0 -- -- 64
2020-10-26 07:00:00 21.1 8 Sudoeste 13 Sudoeste 0 -- -- 64
2020-10-26 06:00:00 21.7 4 Sudoeste 12 Sudoeste 0 -- -- 66
2020-10-26 05:00:00 21.8 5 Sudoeste 13 Sudoeste 0 -- -- 67
2020-10-26 04:00:00 21.9 8 Sudoeste 13 Sudoeste 0 -- -- 67
2020-10-26 03:00:00 21.9 6 Sudoeste 11 Sudoeste 0 -- -- 67
2020-10-26 02:00:00 22 7 Sudoeste 10 Sudoeste 0 -- -- 67
2020-10-26 01:00:00 22 5 Sudoeste 13 Sudoeste 0 -- -- 67
2020-10-26 00:00:00 22.1 9 Sudoeste 13 Sudoeste 0 -- -- 67
2020-10-25 23:00:00 22.1 8 Sudoeste 18 Sudoeste 0 -- -- 66
2020-10-25 22:00:00 22.3 7 Sudoeste 23 Sudoeste 0 -- -- 66
2020-10-25 21:00:00 22.5 14 Sudoeste 20 Sudoeste 0 -- -- 66
2020-10-25 20:00:00 22.7 13 Sudoeste 21 Sudoeste 0 -- -- 66
2020-10-25 19:00:00 22.5 8 Sudoeste 16 Sudoeste 0 -- -- 65
2020-10-25 18:00:00 22.9 15 Sudoeste 21 Sudoeste 0 -- -- 64
2020-10-25 17:00:00 23.3 15 Sudoeste 18 Sudoeste 0 -- -- 61
2020-10-25 16:00:00 24.1 7 Sudoeste 14 Sudoeste 0 -- -- 60
2020-10-25 15:00:00 23.9 11 Sudoeste 15 Sudoeste 0 -- -- 59
2020-10-25 14:00:00 23.9 8 Sudoeste 17 Sudoeste 0 -- -- 60
2020-10-25 13:00:00 24.7 7 Sudoeste 17 Sudoeste 0 -- -- 57
2020-10-25 12:00:00 24 8 Sudoeste 13 Sudoeste 0 -- -- 59
2020-10-25 11:00:00 23.4 6 Sudoeste 13 Sudoeste 0 -- -- 61
2020-10-25 10:00:00 24 5 Sudoeste 9 Sudoeste 0 -- -- 59
2020-10-25 09:00:00 21.1 9 Sudoeste 14 Sudoeste 0 -- -- 62
2020-10-25 08:00:00 20 12 Sudoeste 18 Sudoeste 0 -- -- 62
2020-10-25 07:00:00 19.5 14 Sudoeste 17 Sudoeste 0 -- -- 65
2020-10-25 06:00:00 19.2 15 Sudoeste 18 Sudoeste 0 -- -- 64
2020-10-25 05:00:00 19.7 11 Sudoeste 17 Sudoeste 0 -- -- 63
2020-10-25 04:00:00 19.4 14 Sudoeste 17 Sudoeste 0 -- -- 64
2020-10-25 03:00:00 19.8 11 Sudoeste 17 Sudoeste 0 -- -- 61
2020-10-25 02:00:00 19.7 13 Sudoeste 17 Sudoeste 0 -- -- 62
2020-10-25 01:00:00 20.3 10 Sudoeste 17 Sudoeste 0 -- -- 61
2020-10-25 00:00:00 20.8 11 Sudoeste 14 Sudoeste 0 -- -- 59
2020-10-24 23:00:00 22 7 Sudoeste 9 Sudoeste 0 -- -- 59
2020-10-24 22:00:00 22 0 Calma 5 Sudoeste 0 -- -- 57
2020-10-24 21:00:00 22.3 3 Sudoeste 9 Sudoeste 0 -- -- 57
2020-10-24 20:00:00 22.5 5 Sudoeste 9 Sudoeste 0 -- -- 56
2020-10-24 19:00:00 22.6 5 Sudoeste 16 Sudoeste 0 -- -- 57
2020-10-24 18:00:00 23.5 10 Sudoeste 20 Sudoeste 0 -- -- 55
2020-10-24 17:00:00 24.2 13 Sudoeste 20 Sudoeste 0 -- -- 54
2020-10-24 16:00:00 23.1 13 Sudoeste 17 Sudoeste 0 -- -- 57
2020-10-24 15:00:00 23.5 11 Sudoeste 18 Sudoeste 0 -- -- 55
2020-10-24 14:00:00 23.9 8 Sudoeste 13 Sudoeste 0 -- -- 54
2020-10-24 13:00:00 24.2 11 Sudoeste 15 Sudoeste 0 -- -- 53
2020-10-24 12:00:00 23.5 7 Sudoeste 12 Sudoeste 0 -- -- 54
2020-10-24 11:00:00 22.2 4 Sudoeste 14 Sudoeste 0 -- -- 53
2020-10-24 10:00:00 19.8 10 Sudoeste 18 Sudoeste 0 -- -- 49
2020-10-24 09:00:00 18.9 14 Sudoeste 19 Sudoeste 0 -- -- 53
2020-10-24 08:00:00 18.6 15 Sudoeste 19 Sudoeste 0 -- -- 51
2020-10-24 07:00:00 18.7 14 Sudoeste 19 Sudoeste 0 -- -- 51
2020-10-24 06:00:00 18.5 14 Sudoeste 20 Sudoeste 0 -- -- 54
2020-10-24 05:00:00 18.8 14 Sudoeste 18 Sudoeste 0 -- -- 55
2020-10-24 04:00:00 19.3 12 Sudoeste 17 Sudoeste 0 -- -- 56
2020-10-24 03:00:00 19.6 11 Sudoeste 16 Sudoeste 0 -- -- 56
2020-10-24 02:00:00 20.1 10 Sudoeste 16 Sudoeste 0 -- -- 55
2020-10-24 01:00:00 20.4 9 Sudoeste 18 Sudoeste 0 -- -- 55
2020-10-24 00:00:00 20.6 11 Sudoeste 15 Sudoeste 0 -- -- 56
2020-10-23 23:00:00 20.8 10 Sudoeste 13 Sudoeste 0 -- -- 58
2020-10-23 22:00:00 21.9 8 Sudoeste 17 Sudoeste 0 -- -- 57
2020-10-23 21:00:00 22.1 13 Sudoeste 18 Sudoeste 0 -- -- 58
2020-10-23 20:00:00 22.2 14 Sudoeste 26 Sudoeste 0 -- -- 56
2020-10-23 19:00:00 22.6 18 Sudoeste 22 Sudoeste 0 -- -- 54
2020-10-23 18:00:00 24 13 Sudoeste 16 Sudoeste 0 -- -- 49
2020-10-23 17:00:00 23.9 10 Sudoeste 19 Sudoeste 0 -- -- 49
2020-10-23 16:00:00 24.3 14 Sudoeste 28 Sudoeste 0 -- -- 48
2020-10-23 15:00:00 24 22 Sudoeste 29 Sudoeste 0 -- -- 48
2020-10-23 14:00:00 24.2 18 Sudoeste 23 Sudoeste 0 -- -- 47
2020-10-23 13:00:00 24.2 12 Sudoeste 17 Sudoeste 0 -- -- 49
2020-10-23 12:00:00 24.2 6 Sudoeste 9 Sudoeste 0 -- -- 48
2020-10-23 11:00:00 24.8 2 Sudoeste 12 Sudoeste 0 -- -- 46
2020-10-23 10:00:00 19.4 11 Sudoeste 15 Sudoeste 0 -- -- 49
2020-10-23 09:00:00 18.9 12 Sudoeste 15 Sudoeste 0 -- -- 49
2020-10-23 08:00:00 18.3 11 Sudoeste 14 Sudoeste 0 -- -- 50
2020-10-23 07:00:00 18.9 10 Sudoeste 17 Sudoeste 0 -- -- 50
2020-10-23 06:00:00 18.8 13 Sudoeste 19 Sudoeste 0 -- -- 53
2020-10-23 05:00:00 19 15 Sudoeste 18 Sudoeste 0 -- -- 53
2020-10-23 04:00:00 19.4 13 Sudoeste 17 Sudoeste 0 -- -- 54
2020-10-23 03:00:00 19.8 11 Sudoeste 16 Sudoeste 0 -- -- 56
2020-10-23 02:00:00 19.9 10 Sudoeste 16 Sudoeste 0 -- -- 57
2020-10-23 01:00:00 20.7 10 Sudoeste 15 Sudoeste 0 -- -- 57
2020-10-23 00:00:00 21.1 10 Sudoeste 14 Sudoeste 0 -- -- 55
2020-10-22 23:00:00 22.1 5 Sudoeste 13 Sudoeste 0 -- -- 59
2020-10-22 22:00:00 22.4 10 Sudoeste 17 Sudoeste 0 -- -- 59
2020-10-22 21:00:00 22.6 14 Sudoeste 22 Sudoeste 0 -- -- 60
2020-10-22 20:00:00 22.4 13 Sudoeste 19 Sudoeste 0 -- -- 60
2020-10-22 19:00:00 22.8 15 Sudoeste 20 Sudoeste 0 -- -- 57
2020-10-22 18:00:00 23.1 15 Sudoeste 24 Sudoeste 0 -- -- 57
2020-10-22 17:00:00 23.8 14 Sudoeste 21 Sudoeste 0 -- -- 56
2020-10-22 16:00:00 24.2 15 Sudoeste 23 Sudoeste 0 -- -- 55
2020-10-22 15:00:00 23.2 17 Sudoeste 27 Sudoeste 0 -- -- 59
2020-10-22 14:00:00 23.1 20 Sudoeste 26 Sudoeste 0 -- -- 59
2020-10-22 13:00:00 22.9 19 Sudoeste 26 Sudoeste 0 -- -- 55
2020-10-22 12:00:00 27 6 Sudoeste 15 Sudoeste 0 -- -- 46
2020-10-22 11:00:00 25.6 3 Sudoeste 12 Sudoeste 0 -- -- 53
2020-10-22 10:00:00 21.2 8 Sudoeste 15 Sudoeste 0 -- -- 60
2020-10-22 09:00:00 19.5 10 Sudoeste 17 Sudoeste 0 -- -- 65
2020-10-22 08:00:00 19.2 10 Sudoeste 14 Sudoeste 0 -- -- 66
2020-10-22 07:00:00 19.5 10 Sudoeste 14 Sudoeste 0 -- -- 67
2020-10-22 06:00:00 20.2 8 Sudoeste 10 Sudoeste 0 -- -- 67
2020-10-22 05:00:00 20.4 7 Sudoeste 12 Sudoeste 0 -- -- 69
2020-10-22 04:00:00 20.9 8 Sudoeste 14 Sudoeste 0 -- -- 68
2020-10-22 03:00:00 21.3 9 Sudoeste 13 Sudoeste 0 -- -- 67
2020-10-22 02:00:00 21.4 10 Sudoeste 19 Sudoeste 0 -- -- 67
2020-10-22 01:00:00 21.7 12 Sudoeste 19 Sudoeste 0 -- -- 68
2020-10-22 00:00:00 22.6 9 Sudoeste 15 Sudoeste 0 -- -- 67
2020-10-21 23:00:00 22.7 5 Sudoeste 9 Sudoeste 0 -- -- 67
2020-10-21 22:00:00 22.8 6 Sudoeste 10 Sudoeste 0 -- -- 67
2020-10-21 21:00:00 22.7 5 Sudoeste 9 Sudoeste 0 -- -- 68
2020-10-21 20:00:00 22.7 6 Sudoeste 18 Sudoeste 0 -- -- 68
2020-10-21 19:00:00 22.9 12 Sudoeste 19 Sudoeste 0 -- -- 66
2020-10-21 18:00:00 23.4 3 Sudoeste 16 Sudoeste 0 -- -- 62
2020-10-21 17:00:00 23.2 12 Sudoeste 21 Sudoeste 0 -- -- 64
2020-10-21 16:00:00 23.2 17 Sudoeste 26 Sudoeste 0 -- -- 63
2020-10-21 15:00:00 24.1 10 Sudoeste 20 Sudoeste 0 -- -- 63
2020-10-21 14:00:00 23.9 15 Sudoeste 26 Sudoeste 0 -- -- 65
2020-10-21 13:00:00 23.6 22 Sudoeste 27 Sudoeste 0 -- -- 65
2020-10-21 12:00:00 26.1 16 Sudoeste 31 Sudoeste 0 -- -- 55
2020-10-21 11:00:00 25.2 11 Sudoeste 30 Sudoeste 0 -- -- 57
2020-10-21 10:00:00 24 14 Sudoeste 24 Sudoeste 0 -- -- 61
2020-10-21 09:00:00 22.7 3 Sudoeste 7 Sudoeste 0 -- -- 67
2020-10-21 08:00:00 22 2 Sudoeste 12 Sudoeste 0 -- -- 67
2020-10-21 07:00:00 22.1 3 Sudoeste 15 Sudoeste 0 -- -- 68
2020-10-21 06:00:00 21.7 7 Sudoeste 10 Sudoeste 0 -- -- 70
2020-10-21 05:00:00 21.6 5 Sudoeste 11 Sudoeste 0 -- -- 70
2020-10-21 04:00:00 22.1 6 Sudoeste 8 Sudoeste 0 -- -- 69
2020-10-21 03:00:00 23.1 5 Sudoeste 17 Sudoeste 0 -- -- 71
2020-10-21 02:00:00 23.1 9 Sudoeste 12 Sudoeste 0 -- -- 73
2020-10-21 01:00:00 23.5 0 Calma 12 Sudoeste 0 -- -- 72
2020-10-21 00:00:00 23.4 3 Sudoeste 8 Sudoeste 0 -- -- 73
2020-10-20 23:00:00 23.6 3 Sudoeste 18 Sudoeste 0 -- -- 75
2020-10-20 22:00:00 23.8 6 Sudoeste 15 Sudoeste 0 -- -- 73
2020-10-20 21:00:00 24.1 14 Sudoeste 22 Sudoeste 0 -- -- 75
2020-10-20 20:00:00 24 9 Sudoeste 16 Sudoeste 0 -- -- 74
2020-10-20 19:00:00 24.9 11 Sudoeste 15 Sudoeste 0 -- -- 71
2020-10-20 18:00:00 25.5 9 Sudoeste 16 Sudoeste 0 -- -- 74
2020-10-20 17:00:00 24.9 10 Sudoeste 22 Sudoeste 0 -- -- 74
2020-10-20 16:00:00 25 11 Sudoeste 26 Sudoeste 0 -- -- 70
2020-10-20 15:00:00 26 14 Sudoeste 25 Sudoeste 0 -- -- 65
2020-10-20 14:00:00 26.1 13 Sudoeste 25 Sudoeste 0 -- -- 62
2020-10-20 13:00:00 25.5 12 Sudoeste 22 Sudoeste 0 -- -- 65
2020-10-20 12:00:00 26.8 10 Sudoeste 28 Sudoeste 0 -- -- 59
2020-10-20 11:00:00 26.3 10 Sudoeste 18 Sudoeste 0 -- -- 57
2020-10-20 10:00:00 26.1 6 Sudoeste 13 Sudoeste 0 -- -- 55
2020-10-20 09:00:00 23.7 8 Sudoeste 17 Sudoeste 0 -- -- 56
2020-10-20 08:00:00 23.5 13 Sudoeste 17 Sudoeste 0 -- -- 56
2020-10-20 07:00:00 23.9 11 Sudoeste 18 Sudoeste 0 -- -- 57
2020-10-20 06:00:00 23.3 11 Sudoeste 18 Sudoeste 0 -- -- 62
2020-10-20 05:00:00 22.7 4 Sudoeste 10 Sudoeste 0 -- -- 76
2020-10-20 04:00:00 22.3 5 Sudoeste 13 Sudoeste 0 -- -- 79
2020-10-20 03:00:00 21.9 8 Sudoeste 11 Sudoeste 0 -- -- 81
2020-10-20 02:00:00 22.8 0 Calma 9 Sudoeste 0 -- -- 81
2020-10-20 01:00:00 22.7 5 Sudoeste 10 Sudoeste 0 -- -- 78
2020-10-20 00:00:00 22.8 5 Sudoeste 11 Sudoeste 0 -- -- 78
2020-10-19 23:00:00 22.9 3 Sudoeste 5 Sudoeste 0 -- -- 77
2020-10-19 22:00:00 23.3 0 Calma 15 Sudoeste 0 -- -- 75
2020-10-19 21:00:00 23.3 6 Sudoeste 9 Sudoeste 0 -- -- 72
2020-10-19 20:00:00 23.5 4 Sudoeste 5 Sudoeste 0 -- -- 71
2020-10-19 19:00:00 25 4 Sudoeste 8 Sudoeste 0 -- -- 65
2020-10-19 18:00:00 27 3 Sudoeste 11 Sudoeste 0 -- -- 63
2020-10-19 17:00:00 25.7 6 Sudoeste 13 Sudoeste 0 -- -- 66
2020-10-19 16:00:00 25.6 11 Sudoeste 17 Sudoeste 0 -- -- 65
2020-10-19 15:00:00 25.4 12 Sudoeste 19 Sudoeste 0 -- -- 65
2020-10-19 14:00:00 24.9 14 Sudoeste 20 Sudoeste 0 -- -- 67
2020-10-19 13:00:00 24.8 11 Sudoeste 17 Sudoeste 0 -- -- 66
2020-10-19 12:00:00 24.5 9 Sudoeste 13 Sudoeste 0 -- -- 66
2020-10-19 11:00:00 24.4 5 Sudoeste 11 Sudoeste 0 -- -- 65
2020-10-19 10:00:00 23.7 8 Sudoeste 28 Sudoeste 0 -- -- 66
2020-10-19 09:00:00 20.2 11 Sudoeste 31 Sudoeste 0 -- -- 66
2020-10-19 08:00:00 20.1 10 Sudoeste 14 Sudoeste 0 -- -- 67
2020-10-19 07:00:00 19.8 11 Sudoeste 13 Sudoeste 0 -- -- 68
2020-10-19 06:00:00 20.3 8 Sudoeste 11 Sudoeste 0 -- -- 66
2020-10-19 05:00:00 20 8 Sudoeste 12 Sudoeste 0 -- -- 71
2020-10-19 04:00:00 19.9 8 Sudoeste 12 Sudoeste 0 -- -- 72
2020-10-19 03:00:00 20.1 9 Sudoeste 13 Sudoeste 0 -- -- 72
2020-10-19 02:00:00 20.3 6 Sudoeste 8 Sudoeste 0 -- -- 72
2020-10-19 01:00:00 20.5 5 Sudoeste 9 Sudoeste 0 -- -- 71
2020-10-19 00:00:00 20.9 4 Sudoeste 6 Sudoeste 0 -- -- 71
2020-10-18 23:00:00 21.4 5 Sudoeste 11 Sudoeste 0 -- -- 71
2020-10-18 22:00:00 21.5 6 Sudoeste 10 Sudoeste 0 -- -- 70
2020-10-18 21:00:00 21.8 6 Sudoeste 12 Sudoeste 0 -- -- 68
2020-10-18 20:00:00 21.9 9 Sudoeste 14 Sudoeste 0 -- -- 67
2020-10-18 19:00:00 22.7 5 Sudoeste 12 Sudoeste 0 -- -- 65
2020-10-18 18:00:00 23 8 Sudoeste 13 Sudoeste 0 -- -- 64
2020-10-18 17:00:00 23.3 10 Sudoeste 18 Sudoeste 0 -- -- 62
2020-10-18 16:00:00 23.9 11 Sudoeste 18 Sudoeste 0 -- -- 61
2020-10-18 15:00:00 23.1 13 Sudoeste 20 Sudoeste 0 -- -- 63
2020-10-18 14:00:00 22.4 14 Sudoeste 21 Sudoeste 0 -- -- 63
2020-10-18 13:00:00 23.7 15 Sudoeste 21 Sudoeste 0 -- -- 63
2020-10-18 12:00:00 22.1 15 Sudoeste 19 Sudoeste 0 -- -- 67
2020-10-18 11:00:00 22.2 11 Sudoeste 15 Sudoeste 0 -- -- 67
2020-10-18 10:00:00 21.7 6 Sudoeste 12 Sudoeste 0 -- -- 68
2020-10-18 09:00:00 20 9 Sudoeste 12 Sudoeste 0 -- -- 70
2020-10-18 08:00:00 20.6 5 Sudoeste 12 Sudoeste 0 -- -- 71
2020-10-18 07:00:00 20.7 7 Sudoeste 15 Sudoeste 0 -- -- 70
2020-10-18 06:00:00 20.8 9 Sudoeste 18 Sudoeste 0 -- -- 68
2020-10-18 05:00:00 21 8 Sudoeste 15 Sudoeste 0 -- -- 67
2020-10-18 04:00:00 21 3 Sudoeste 15 Sudoeste 0 -- -- 66
2020-10-18 03:00:00 21.1 12 Sudoeste 14 Sudoeste 0 -- -- 66
2020-10-18 02:00:00 21.4 4 Sudoeste 12 Sudoeste 0 -- -- 66
2020-10-18 01:00:00 21.6 6 Sudoeste 12 Sudoeste 0 -- -- 66
2020-10-18 00:00:00 21.7 8 Sudoeste 18 Sudoeste 0 -- -- 65
2020-10-17 23:00:00 22 12 Sudoeste 23 Sudoeste 0 -- -- 65
2020-10-17 22:00:00 21.7 15 Sudoeste 21 Sudoeste 0 -- -- 68
2020-10-17 21:00:00 21.8 13 Sudoeste 21 Sudoeste 0 -- -- 67
2020-10-17 20:00:00 21.9 17 Sudoeste 21 Sudoeste 0 -- -- 66
2020-10-17 19:00:00 22.2 17 Sudoeste 24 Sudoeste 0 -- -- 65
2020-10-17 18:00:00 22.7 18 Sudoeste 26 Sudoeste 0 -- -- 63
2020-10-17 17:00:00 22.2 20 Sudoeste 25 Sudoeste 0 -- -- 65
2020-10-17 16:00:00 22.6 22 Sudoeste 29 Sudoeste 0 -- -- 65
2020-10-17 15:00:00 22.4 21 Sudoeste 30 Sudoeste 0 -- -- 65
2020-10-17 14:00:00 22.4 19 Sudoeste 33 Sudoeste 0 -- -- 66
2020-10-17 13:00:00 23.1 24 Sudoeste 31 Sudoeste 0 -- -- 64
2020-10-17 12:00:00 24.6 14 Sudoeste 21 Sudoeste 0 -- -- 59
2020-10-17 11:00:00 23.5 6 Sudoeste 13 Sudoeste 0 -- -- 59
2020-10-17 10:00:00 23.3 5 Sudoeste 8 Sudoeste 0 -- -- 61
2020-10-17 09:00:00 22.7 2 Sudoeste 4 Sudoeste 0 -- -- 64
2020-10-17 08:00:00 21.6 4 Sudoeste 7 Sudoeste 0 -- -- 65
2020-10-17 07:00:00 21.3 5 Sudoeste 9 Sudoeste 0 -- -- 65
2020-10-17 06:00:00 21.2 6 Sudoeste 10 Sudoeste 0 -- -- 66
2020-10-17 05:00:00 21.1 7 Sudoeste 9 Sudoeste 0 -- -- 66
2020-10-17 04:00:00 21.4 9 Sudoeste 10 Sudoeste 0 -- -- 66
2020-10-17 03:00:00 21.5 4 Sudoeste 9 Sudoeste 0 -- -- 65
2020-10-17 02:00:00 22.4 5 Sudoeste 11 Sudoeste 0 -- -- 64
2020-10-17 01:00:00 22.8 7 Sudoeste 10 Sudoeste 0 -- -- 64
2020-10-17 00:00:00 23 8 Sudoeste 15 Sudoeste 0 -- -- 64
2020-10-16 23:00:00 23.1 9 Sudoeste 16 Sudoeste 0 -- -- 64
2020-10-16 22:00:00 23 7 Sudoeste 18 Sudoeste 0 -- -- 65
2020-10-16 21:00:00 22.7 11 Sudoeste 17 Sudoeste 0 -- -- 67
2020-10-16 20:00:00 22.6 10 Sudoeste 16 Sudoeste 0 -- -- 66
2020-10-16 19:00:00 22.6 7 Sudoeste 20 Sudoeste 0 -- -- 66
2020-10-16 18:00:00 22.6 12 Sudoeste 28 Sudoeste 0 -- -- 66
2020-10-16 17:00:00 22.9 18 Sudoeste 29 Sudoeste 0 -- -- 65
2020-10-16 16:00:00 23.2 19 Sudoeste 32 Sudoeste 0 -- -- 64
2020-10-16 15:00:00 23.1 19 Sudoeste 24 Sudoeste 0 -- -- 65
2020-10-16 14:00:00 23.7 17 Sudoeste 23 Sudoeste 0 -- -- 62
2020-10-16 13:00:00 23.5 13 Sudoeste 20 Sudoeste 0 -- -- 63
2020-10-16 12:00:00 24 8 Sudoeste 14 Sudoeste 0 -- -- 61
2020-10-16 11:00:00 24.7 9 Sudoeste 14 Sudoeste 0 -- -- 61
2020-10-16 10:00:00 23.6 0 Calma 14 Sudoeste 0 -- -- 64
2020-10-16 09:00:00 22.7 11 Sudoeste 15 Sudoeste 0 -- -- 66
2020-10-16 08:00:00 22.5 8 Sudoeste 17 Sudoeste 0 -- -- 69
2020-10-16 07:00:00 22.4 10 Sudoeste 17 Sudoeste 0 -- -- 70
2020-10-16 06:00:00 22.5 6 Sudoeste 17 Sudoeste 0 -- -- 70
2020-10-16 05:00:00 22.5 12 Sudoeste 21 Sudoeste 0 -- -- 70
2020-10-16 04:00:00 22.4 6 Sudoeste 12 Sudoeste 0 -- -- 69
2020-10-16 03:00:00 22.3 8 Sudoeste 12 Sudoeste 0 -- -- 71
2020-10-16 02:00:00 22.2 5 Sudoeste 8 Sudoeste 0 -- -- 72
2020-10-16 01:00:00 22.3 6 Sudoeste 13 Sudoeste 0 -- -- 72
2020-10-16 00:00:00 22.2 6 Sudoeste 12 Sudoeste 0 -- -- 72
2020-10-15 23:00:00 22.3 9 Sudoeste 14 Sudoeste 0 -- -- 72
2020-10-15 22:00:00 22.2 6 Sudoeste 10 Sudoeste 0 -- -- 72
2020-10-15 21:00:00 22.3 5 Sudoeste 13 Sudoeste 0 -- -- 71
2020-10-15 20:00:00 22.4 6 Sudoeste 17 Sudoeste 0 -- -- 71
2020-10-15 19:00:00 22.2 12 Sudoeste 23 Sudoeste 0 -- -- 70
2020-10-15 18:00:00 22.8 15 Sudoeste 19 Sudoeste 0 -- -- 67
2020-10-15 17:00:00 24.8 10 Sudoeste 18 Sudoeste 0 -- -- 63
2020-10-15 16:00:00 24.1 13 Sudoeste 23 Sudoeste 0 -- -- 65
2020-10-15 15:00:00 24 16 Sudoeste 29 Sudoeste 0 -- -- 65
2020-10-15 14:00:00 23.4 23 Sudoeste 31 Sudoeste 0 -- -- 66
2020-10-15 13:00:00 23.8 18 Sudoeste 26 Sudoeste 0 -- -- 64
2020-10-15 12:00:00 24 12 Sudoeste 18 Sudoeste 0 -- -- 60
2020-10-15 11:00:00 25.6 3 Sudoeste 11 Sudoeste 0 -- -- 60
2020-10-15 10:00:00 24 10 Sudoeste 19 Sudoeste 0 -- -- 66
2020-10-15 09:00:00 22.3 12 Sudoeste 15 Sudoeste 0 -- -- 71
2020-10-15 08:00:00 22.1 8 Sudoeste 23 Sudoeste 0 -- -- 73
2020-10-15 07:00:00 22.1 15 Sudoeste 25 Sudoeste 0 -- -- 75
2020-10-15 06:00:00 21.9 5 Sudoeste 16 Sudoeste 0 -- -- 75
2020-10-15 05:00:00 21.7 7 Sudoeste 11 Sudoeste 0 -- -- 75
2020-10-15 04:00:00 21.9 4 Sudoeste 8 Sudoeste 0 -- -- 75
2020-10-15 03:00:00 22.2 8 Sudoeste 21 Sudoeste 0 -- -- 73
2020-10-15 02:00:00 22.4 11 Sudoeste 15 Sudoeste 0 -- -- 73
2020-10-15 01:00:00 22.6 10 Sudoeste 20 Sudoeste 0 -- -- 76
2020-10-15 00:00:00 22.9 13 Sudoeste 20 Sudoeste 0 -- -- 76
2020-10-14 23:00:00 22.8 12 Sudoeste 17 Sudoeste 0 -- -- 76
2020-10-14 22:00:00 22.8 4 Sudoeste 12 Sudoeste 0 -- -- 77
2020-10-14 21:00:00 23 12 Sudoeste 19 Sudoeste 0 -- -- 77
2020-10-14 20:00:00 23.1 16 Sudoeste 19 Sudoeste 0 -- -- 75
2020-10-14 19:00:00 24.7 6 Sudoeste 12 Sudoeste 0 -- -- 71
2020-10-14 18:00:00 24.7 10 Sudoeste 26 Sudoeste 0 -- -- 71
2020-10-14 17:00:00 23.5 21 Sudoeste 32 Sudoeste 0 -- -- 73
2020-10-14 16:00:00 23.8 24 Sudoeste 31 Sudoeste 0 -- -- 71
2020-10-14 15:00:00 24.9 16 Sudoeste 24 Sudoeste 0 -- -- 63
2020-10-14 14:00:00 24.6 21 Sudoeste 30 Sudoeste 0 -- -- 68
2020-10-14 13:00:00 26.1 7 Sudoeste 14 Sudoeste 0 -- -- 61
2020-10-14 12:00:00 25.2 10 Sudoeste 14 Sudoeste 0 -- -- 66
2020-10-14 11:00:00 24.7 8 Sudoeste 11 Sudoeste 0 -- -- 67
2020-10-14 10:00:00 24.7 3 Sudoeste 9 Sudoeste 0 -- -- 67
2020-10-14 09:00:00 22.8 0 Calma 8 Sudoeste 0 -- -- 71
2020-10-14 08:00:00 22.2 3 Sudoeste 16 Sudoeste 0 -- -- 71
2020-10-14 07:00:00 22.7 9 Sudoeste 22 Sudoeste 0 -- -- 72
2020-10-14 06:00:00 23.5 10 Sudoeste 16 Sudoeste 0 -- -- 67
2020-10-14 05:00:00 23.2 6 Sudoeste 15 Sudoeste 0 -- -- 68
2020-10-14 04:00:00 23.6 3 Sudoeste 19 Sudoeste 0 -- -- 71
2020-10-14 03:00:00 23.3 7 Sudoeste 14 Sudoeste 0 -- -- 73
2020-10-14 02:00:00 23.4 4 Sudoeste 16 Sudoeste 0 -- -- 77
2020-10-14 01:00:00 23.5 6 Sudoeste 11 Sudoeste 0 -- -- 75
2020-10-14 00:00:00 23.2 0 Calma 9 Sudoeste 0 -- -- 78
2020-10-13 23:00:00 23.5 6 Sudoeste 10 Sudoeste 0 -- -- 78
2020-10-13 22:00:00 24.3 6 Sudoeste 9 Sudoeste 0 -- -- 76
2020-10-13 21:00:00 23.8 4 Sudoeste 12 Sudoeste 0 -- -- 77
2020-10-13 20:00:00 23.9 6 Sudoeste 12 Sudoeste 0 -- -- 76
2020-10-13 19:00:00 24.5 6 Sudoeste 9 Sudoeste 0 -- -- 73
2020-10-13 18:00:00 25.1 12 Sudoeste 34 Sudoeste 0 -- -- 73
2020-10-13 17:00:00 27.7 18 Sudoeste 24 Sudoeste 0 -- -- 54
2020-10-13 16:00:00 26 17 Sudoeste 27 Sudoeste 0 -- -- 58
2020-10-13 15:00:00 26.2 8 Sudoeste 17 Sudoeste 0 -- -- 56
2020-10-13 14:00:00 26.3 5 Sudoeste 19 Sudoeste 0 -- -- 62
2020-10-13 13:00:00 24.9 15 Sudoeste 25 Sudoeste 0 -- -- 68
2020-10-13 12:00:00 24.4 16 Sudoeste 28 Sudoeste 0 -- -- 68
2020-10-13 11:00:00 26 9 Sudoeste 33 Sudoeste 0 -- -- 62
2020-10-13 10:00:00 25.3 10 Sudoeste 25 Sudoeste 0 -- -- 62
2020-10-13 09:00:00 -- -- -- -- -- -- -- -- --
2020-10-13 08:00:00 23.5 0 Calma 5 Sudoeste 0 -- -- 64
2020-10-13 07:00:00 23.4 5 Sudoeste 11 Sudoeste 0 -- -- 62
2020-10-13 06:00:00 24 8 Sudoeste 12 Sudoeste 0 -- -- 66
2020-10-13 05:00:00 24.6 8 Sudoeste 12 Sudoeste 0 -- -- 60
2020-10-13 04:00:00 24.4 9 Sudoeste 11 Sudoeste 0 -- -- 65
2020-10-13 03:00:00 24 0 Calma 10 Sudoeste 0 -- -- 73
2020-10-13 02:00:00 24.2 0 Calma 14 Sudoeste 0 -- -- 78
2020-10-13 01:00:00 24.4 5 Sudoeste 9 Sudoeste 0 -- -- 73
2020-10-13 00:00:00 -- -- -- -- -- -- -- -- --
2020-10-12 23:00:00 24.6 3 Sudoeste 9 Sudoeste 0 -- -- 78
2020-10-12 22:00:00 25 2 Sudoeste 6 Sudoeste 0 -- -- 72
2020-10-12 21:00:00 25.2 3 Sudoeste 9 Sudoeste 0 -- -- 72
2020-10-12 20:00:00 26.2 5 Sudoeste 15 Sudoeste 0 -- -- 66
2020-10-12 19:00:00 29.9 11 Sudoeste 18 Sudoeste 0 -- -- 41
2020-10-12 18:00:00 29.6 11 Sudoeste 18 Sudoeste 0 -- -- 46
2020-10-12 17:00:00 29.9 11 Sudoeste 18 Sudoeste 0 -- -- 46
2020-10-12 16:00:00 31.6 4 Sudoeste 19 Sudoeste 0 -- -- 43
2020-10-12 15:00:00 26.9 16 Sudoeste 20 Sudoeste 0 -- -- 60
2020-10-12 14:00:00 27.2 15 Sudoeste 26 Sudoeste 0 -- -- 55
2020-10-12 13:00:00 26.8 19 Sudoeste 25 Sudoeste 0 -- -- 53
2020-10-12 12:00:00 25 19 Sudoeste 24 Sudoeste 0 -- -- 72
2020-10-12 11:00:00 28.9 4 Sudoeste 17 Sudoeste 0 -- -- 55
2020-10-12 10:00:00 25.2 10 Sudoeste 17 Sudoeste 0 -- -- 65
2020-10-12 09:00:00 23.3 6 Sudoeste 13 Sudoeste 0 -- -- 54
2020-10-12 08:00:00 21.9 9 Sudoeste 15 Sudoeste 0 -- -- 60
2020-10-12 07:00:00 21.5 10 Sudoeste 14 Sudoeste 0 -- -- 68
2020-10-12 06:00:00 21.4 8 Sudoeste 16 Sudoeste 0 -- -- 71
2020-10-12 05:00:00 22.4 7 Sudoeste 10 Sudoeste 0 -- -- 71
2020-10-12 04:00:00 23.1 7 Sudoeste 10 Sudoeste 0 -- -- 75
2020-10-12 03:00:00 -- -- -- -- -- -- -- -- --
2020-10-12 02:00:00 23.3 6 Sudoeste 10 Sudoeste 0 -- -- 70
2020-10-12 01:00:00 23 4 Sudoeste 7 Sudoeste 0 -- -- 70
2020-10-12 00:00:00 23.8 4 Sudoeste 11 Sudoeste 0 -- -- 70
2020-10-11 23:00:00 23.7 5 Sudoeste 7 Sudoeste 0 -- -- 71
2020-10-11 22:00:00 23.5 3 Sudoeste 6 Sudoeste 0 -- -- 71
2020-10-11 21:00:00 23.5 0 Calma 4 Sudoeste 0 -- -- 67
2020-10-11 20:00:00 -- -- -- -- -- -- -- -- --
2020-10-11 19:00:00 -- -- -- -- -- -- -- -- --
2020-10-11 18:00:00 26.2 4 Sudoeste 9 Sudoeste 0 -- -- 62
2020-10-11 17:00:00 25.9 7 Sudoeste 11 Sudoeste 0 -- -- 61
2020-10-11 16:00:00 27.8 7 Sudoeste 10 Sudoeste 0 -- -- 57
2020-10-11 15:00:00 27.9 4 Sudoeste 8 Sudoeste 0 -- -- 60
2020-10-11 14:00:00 27.3 5 Sudoeste 10 Sudoeste 0 -- -- 61
2020-10-11 13:00:00 27.3 5 Sudoeste 8 Sudoeste 0 -- -- 62
2020-10-11 12:00:00 26.5 4 Sudoeste 13 Sudoeste 0 -- -- 65
2020-10-11 11:00:00 25.6 6 Sudoeste 9 Sudoeste 0 -- -- 67
2020-10-11 10:00:00 24.9 0 Calma 13 Sudoeste 0 -- -- 71
2020-10-11 09:00:00 21.4 9 Sudoeste 13 Sudoeste 0 -- -- 75
2020-10-11 08:00:00 21.2 10 Sudoeste 15 Sudoeste 0 -- -- 76
2020-10-11 07:00:00 22.3 8 Sudoeste 16 Sudoeste 0 -- -- 76
2020-10-11 06:00:00 22 4 Sudoeste 17 Sudoeste 0 -- -- 76
2020-10-11 05:00:00 21.8 6 Sudoeste 10 Sudoeste 0 -- -- 75
2020-10-11 04:00:00 22.3 10 Sudoeste 13 Sudoeste 0 -- -- 74
2020-10-11 03:00:00 22 6 Sudoeste 10 Sudoeste 0 -- -- 73
2020-10-11 02:00:00 22.4 4 Sudoeste 11 Sudoeste 0 -- -- 72
2020-10-11 01:00:00 22.8 4 Sudoeste 12 Sudoeste 0 -- -- 73
2020-10-11 00:00:00 22.8 5 Sudoeste 9 Sudoeste 0 -- -- 75
2020-10-10 23:00:00 23 8 Sudoeste 13 Sudoeste 0 -- -- 75
2020-10-10 22:00:00 23.2 7 Sudoeste 14 Sudoeste 0 -- -- 73
2020-10-10 21:00:00 23.2 10 Sudoeste 16 Sudoeste 0 -- -- 73
2020-10-10 20:00:00 23.3 14 Sudoeste 19 Sudoeste 0 -- -- 72
2020-10-10 19:00:00 23.9 15 Sudoeste 18 Sudoeste 0 -- -- 71
2020-10-10 18:00:00 24.3 13 Sudoeste 15 Sudoeste 0 -- -- 67
2020-10-10 17:00:00 25.5 8 Sudoeste 16 Sudoeste 0 -- -- 62
2020-10-10 16:00:00 25.3 12 Sudoeste 18 Sudoeste 0 -- -- 62
2020-10-10 15:00:00 25.3 8 Sudoeste 12 Sudoeste 0 -- -- 61
2020-10-10 14:00:00 26.5 6 Sudoeste 10 Sudoeste 0 -- -- 57
2020-10-10 13:00:00 26.4 5 Sudoeste 12 Sudoeste 0 -- -- 61
2020-10-10 12:00:00 25.6 6 Sudoeste 10 Sudoeste 0 -- -- 65
2020-10-10 11:00:00 25.3 6 Sudoeste 11 Sudoeste 0 -- -- 62
2020-10-10 10:00:00 24.9 3 Sudoeste 15 Sudoeste 0 -- -- 61
2020-10-10 09:00:00 21.6 12 Sudoeste 17 Sudoeste 0 -- -- 68
2020-10-10 08:00:00 21.4 11 Sudoeste 16 Sudoeste 0 -- -- 71
2020-10-10 07:00:00 21.9 10 Sudoeste 15 Sudoeste 0 -- -- 73
2020-10-10 06:00:00 21.7 10 Sudoeste 13 Sudoeste 0 -- -- 78
2020-10-10 05:00:00 22 6 Sudoeste 10 Sudoeste 0 -- -- 78
2020-10-10 04:00:00 22.7 6 Sudoeste 14 Sudoeste 0 -- -- 81
2020-10-10 03:00:00 22.5 3 Sudoeste 7 Sudoeste 0 -- -- 81
2020-10-10 02:00:00 22.5 3 Sudoeste 6 Sudoeste 0 -- -- 81
2020-10-10 01:00:00 22.9 4 Sudoeste 12 Sudoeste 0 -- -- 81
2020-10-10 00:00:00 22.8 8 Sudoeste 15 Sudoeste 0 -- -- 81
2020-10-09 23:00:00 23 10 Sudoeste 12 Sudoeste 0 -- -- 79
2020-10-09 22:00:00 23.3 5 Sudoeste 8 Sudoeste 0 -- -- 77
2020-10-09 21:00:00 23.3 6 Sudoeste 15 Sudoeste 0 -- -- 76
2020-10-09 20:00:00 23.9 15 Sudoeste 18 Sudoeste 0 -- -- 72
2020-10-09 19:00:00 25.3 13 Sudoeste 18 Sudoeste 0 -- -- 64
2020-10-09 18:00:00 26.4 4 Sudoeste 12 Sudoeste 0 -- -- 59
2020-10-09 17:00:00 27 7 Sudoeste 11 Oeste 0 -- -- 60
2020-10-09 16:00:00 26.4 5 Sudoeste 12 Sudoeste 0 -- -- 61
2020-10-09 15:00:00 25.8 10 Sudoeste 15 Sudoeste 0 -- -- 63
2020-10-09 14:00:00 26.6 11 Sudoeste 15 Sudoeste 0 -- -- 61
2020-10-09 13:00:00 27.3 6 Sudoeste 9 Sudoeste 0 -- -- 58
2020-10-09 12:00:00 27.1 5 Sudoeste 8 Sudoeste 0 -- -- 61
2020-10-09 11:00:00 26.8 3 Sudoeste 12 Sudoeste 0 -- -- 69
2020-10-09 10:00:00 24.3 9 Sudoeste 12 Sudoeste 0 -- -- 75
2020-10-09 09:00:00 22.4 8 Sudoeste 12 Sudoeste 0 -- -- 78
2020-10-09 08:00:00 22.5 6 Sudoeste 14 Sudoeste 0 -- -- 79
2020-10-09 07:00:00 23 10 Sudoeste 15 Sudoeste 0 -- -- 79
2020-10-09 06:00:00 22.5 7 Sudoeste 9 Sudoeste 0 -- -- 78
2020-10-09 05:00:00 22.3 5 Sudoeste 10 Sudoeste 0 -- -- 78
2020-10-09 04:00:00 22 5 Sudoeste 8 Sudoeste 0 -- -- 77
2020-10-09 03:00:00 22.2 2 Sudoeste 5 Sudoeste 0 -- -- 77
2020-10-09 02:00:00 22.1 0 Calma 9 Sudoeste 0 -- -- 79
2020-10-09 01:00:00 23.4 9 Sudoeste 17 Sudoeste 0 -- -- 80
2020-10-09 00:00:00 23.5 12 Sudoeste 21 Sudoeste 0 -- -- 78
2020-10-08 23:00:00 23.8 14 Sudoeste 23 Sudoeste 0 -- -- 75
2020-10-08 22:00:00 24.4 7 Sudoeste 18 Sudoeste 0 -- -- 71
2020-10-08 21:00:00 24.2 14 Sudoeste 16 Sudoeste 0 -- -- 70
2020-10-08 20:00:00 24.6 9 Sudoeste 12 Sudoeste 0 -- -- 66
2020-10-08 19:00:00 26.4 4 Sudoeste 13 Oeste 0 -- -- 61
2020-10-08 18:00:00 25.9 10 Sudoeste 15 Sudoeste 0 -- -- 61
2020-10-08 17:00:00 26.4 11 Oeste 14 Sudoeste 0 -- -- 61
2020-10-08 16:00:00 27.7 3 Sudoeste 12 Oeste 0 -- -- 61
2020-10-08 15:00:00 26.8 8 Sudoeste 13 Sudoeste 0 -- -- 63
2020-10-08 14:00:00 27.1 8 Sudoeste 13 Sudoeste 0 -- -- 63
2020-10-08 13:00:00 27.8 4 Sudoeste 10 Sudoeste 0 -- -- 66
2020-10-08 12:00:00 26.4 6 Sudoeste 9 Sudoeste 0 -- -- 71
2020-10-08 11:00:00 25.2 6 Sudoeste 13 Sudoeste 0 -- -- 75
2020-10-08 10:00:00 24.9 0 Calma 11 Sudoeste 0 -- -- 79
2020-10-08 09:00:00 21.8 7 Sudoeste 13 Sudoeste 0 -- -- 82
2020-10-08 08:00:00 21 11 Sudoeste 17 Sudoeste 0 -- -- 85
2020-10-08 07:00:00 21.4 9 Sudoeste 15 Sudoeste 0 -- -- 86
2020-10-08 06:00:00 21.9 9 Sudoeste 17 Sudoeste 0 -- -- 83
2020-10-08 05:00:00 22.3 4 Sudoeste 12 Sudoeste 0 -- -- 83
2020-10-08 04:00:00 22 7 Sudoeste 11 Sudoeste 0 -- -- 83
2020-10-08 03:00:00 22.3 0 Calma 7 Sudoeste 0 -- -- 82
2020-10-08 02:00:00 22.6 0 Calma 9 Sudoeste 0 -- -- 82
2020-10-08 01:00:00 22.9 6 Sudoeste 9 Sudoeste 0 -- -- 82
2020-10-08 00:00:00 23 8 Sudoeste 12 Sudoeste 0 -- -- 81
2020-10-07 23:00:00 23.2 6 Sudoeste 11 Sudoeste 0 -- -- 78
2020-10-07 22:00:00 23.5 9 Sudoeste 13 Sudoeste 0 -- -- 76
2020-10-07 21:00:00 23.5 0 Calma 11 Sudoeste 0 -- -- 75
2020-10-07 20:00:00 23.7 9 Sudoeste 13 Sudoeste 0 -- -- 73
2020-10-07 19:00:00 24.5 8 Sudoeste 16 Oeste 0 -- -- 71
2020-10-07 18:00:00 24.2 9 Sudoeste 13 Oeste 0 -- -- 68
2020-10-07 17:00:00 25.4 10 Sudoeste 14 Sudoeste 0 -- -- 64
2020-10-07 16:00:00 26.3 8 Sudoeste 13 Sudoeste 0 -- -- 63
2020-10-07 15:00:00 27 6 Sudoeste 12 Sudoeste 0 -- -- 64
2020-10-07 14:00:00 24.7 10 Sudoeste 13 Sudoeste 0 -- -- 68
2020-10-07 13:00:00 25.6 7 Sudoeste 10 Sudoeste 0 -- -- 67
2020-10-07 12:00:00 25.5 5 Sudoeste 12 Sudoeste 0 -- -- 72
2020-10-07 11:00:00 25.2 3 Sudoeste 8 Sudoeste 0 -- -- 76
2020-10-07 10:00:00 23.3 3 Sudoeste 8 Sudoeste 0 -- -- 81
2020-10-07 09:00:00 21.4 8 Sudoeste 10 Sudoeste 0 -- -- 83
2020-10-07 08:00:00 21.7 6 Sudoeste 14 Sudoeste 0 -- -- 83
2020-10-07 07:00:00 21.4 6 Sudoeste 11 Sudoeste 0 -- -- 83
2020-10-07 06:00:00 21 8 Sudoeste 11 Sudoeste 0 -- -- 84
2020-10-07 05:00:00 21.2 5 Sudoeste 10 Sudoeste 0 -- -- 83
2020-10-07 04:00:00 21.2 9 Sudoeste 11 Sudoeste 0 -- -- 83
2020-10-07 03:00:00 21.7 8 Sudoeste 12 Sudoeste 0 -- -- 82
2020-10-07 02:00:00 22.3 6 Sudoeste 12 Sudoeste 0 -- -- 81
2020-10-07 01:00:00 22.3 4 Sudoeste 14 Sudoeste 0 -- -- 81
2020-10-07 00:00:00 22.3 9 Sudoeste 16 Sudoeste 0 -- -- 81
2020-10-06 23:00:00 22.2 5 Sudoeste 10 Sudoeste 0 -- -- 81
2020-10-06 22:00:00 22.3 9 Sudoeste 14 Sudoeste 0 -- -- 81
2020-10-06 21:00:00 22.1 10 Sudoeste 13 Sudoeste 0 -- -- 81
2020-10-06 20:00:00 22.3 3 Sudoeste 11 Sudoeste 0 -- -- 79
2020-10-06 19:00:00 22.2 7 Sudoeste 24 Sudoeste 0 -- -- 79
2020-10-06 18:00:00 22.4 6 Sudoeste 26 Sudoeste 0 -- -- 79
2020-10-06 17:00:00 22.7 2 Sudoeste 29 Sudoeste 0 -- -- 78
2020-10-06 16:00:00 21.6 11 Sudoeste 23 Sudoeste 0.5 -- -- 83
2020-10-06 15:00:00 21.9 3 Sudoeste 14 Sudoeste 0.4 -- -- 82
2020-10-06 14:00:00 21 2 Sudoeste 12 Oeste 0.2 -- -- 82
2020-10-06 13:00:00 20.5 3 Sudoeste 22 Sudoeste 1.8 -- -- 82
2020-10-06 12:00:00 21.5 11 Sudoeste 21 Sudoeste 1.5 -- -- 81
2020-10-06 11:00:00 21.8 12 Sudoeste 21 Sudoeste 0.1 -- -- 77
2020-10-06 10:00:00 22.8 8 Sudoeste 15 Sudoeste 0 -- -- 73
2020-10-06 09:00:00 22.6 10 Sudoeste 14 Sudoeste 0 -- -- 73
2020-10-06 08:00:00 22.4 5 Sudoeste 8 Sudoeste 0 -- -- 73
2020-10-06 07:00:00 22.5 2 Sudoeste 5 Sudoeste 0 -- -- 73
2020-10-06 06:00:00 22.5 5 Sudoeste 15 Sudoeste 0 -- -- 72
2020-10-06 05:00:00 22.7 6 Sudoeste 15 Sudoeste 0 -- -- 71
2020-10-06 04:00:00 22.7 6 Sudoeste 13 Sudoeste 0 -- -- 70
2020-10-06 03:00:00 22.6 10 Sudoeste 14 Sudoeste 0 -- -- 70
2020-10-06 02:00:00 22.8 5 Sudoeste 8 Sudoeste 0 -- -- 68
2020-10-06 01:00:00 22.7 3 Sudoeste 11 Sudoeste 0 -- -- 69
2020-10-06 00:00:00 22.8 9 Sudoeste 15 Sudoeste 0 -- -- 67
2020-10-05 23:00:00 23.1 8 Sudoeste 25 Sudoeste 0 -- -- 66
2020-10-05 22:00:00 23.2 18 Sudoeste 27 Sudoeste 0 -- -- 65
2020-10-05 21:00:00 23.8 5 Sudoeste 11 Sudoeste 0 -- -- 59
2020-10-05 20:00:00 23.6 6 Sudoeste 12 Sudoeste 0 -- -- 61
2020-10-05 19:00:00 23.8 3 Sudoeste 12 Sudoeste 0 -- -- 62
2020-10-05 18:00:00 24 9 Sudoeste 19 Oeste 0 -- -- 62
2020-10-05 17:00:00 25 14 Sudoeste 25 Sudoeste 0 -- -- 61
2020-10-05 16:00:00 24.1 17 Sudoeste 29 Sudoeste 0 -- -- 62
2020-10-05 15:00:00 24.3 20 Sudoeste 27 Sudoeste 0 -- -- 60
2020-10-05 14:00:00 25.9 9 Sudoeste 15 Sudoeste 0 -- -- 56
2020-10-05 13:00:00 25.7 9 Sudoeste 15 Sudoeste 0 -- -- 57
2020-10-05 12:00:00 25.8 6 Sudoeste 11 Sudoeste 0 -- -- 58
2020-10-05 11:00:00 25.4 6 Sudoeste 10 Sudoeste 0 -- -- 60
2020-10-05 10:00:00 24.2 3 Sudoeste 12 Sudoeste 0 -- -- 60
2020-10-05 09:00:00 21.4 8 Sudoeste 14 Sudoeste 0 -- -- 65
2020-10-05 08:00:00 21.3 8 Sudoeste 12 Sudoeste 0 -- -- 66
2020-10-05 07:00:00 22.2 5 Sudoeste 10 Sudoeste 0 -- -- 66
2020-10-05 06:00:00 21.9 9 Sudoeste 11 Oeste 0 -- -- 66
2020-10-05 05:00:00 22.3 10 Sudoeste 18 Sudoeste 0 -- -- 67
2020-10-05 04:00:00 22.1 2 Sudoeste 10 Sudoeste 0 -- -- 66
2020-10-05 03:00:00 22.4 6 Sudoeste 9 Sudoeste 0 -- -- 66
2020-10-05 02:00:00 22.6 4 Sudoeste 15 Sudoeste 0 -- -- 66
2020-10-05 01:00:00 23 9 Sudoeste 15 Sudoeste 0 -- -- 66
2020-10-05 00:00:00 23.2 12 Sudoeste 17 Sudoeste 0 -- -- 65
2020-10-04 23:00:00 23.5 9 Sudoeste 18 Sudoeste 0 -- -- 63
2020-10-04 22:00:00 23.5 4 Sudoeste 8 Sudoeste 0 -- -- 62
2020-10-04 21:00:00 23.7 7 Sudoeste 17 Oeste 0 -- -- 62
2020-10-04 20:00:00 23.4 3 Sudoeste 19 Sudoeste 0 -- -- 65
2020-10-04 19:00:00 23.8 17 Sudoeste 23 Sudoeste 0 -- -- 68
2020-10-04 18:00:00 24.9 13 Sudoeste 36 Sudoeste 0 -- -- 66
2020-10-04 17:00:00 25.9 25 Sudoeste 32 Sudoeste 0 -- -- 62
2020-10-04 16:00:00 25.7 19 Sudoeste 28 Sudoeste 0 -- -- 62
2020-10-04 15:00:00 24.7 17 Sudoeste 23 Sudoeste 0 -- -- 67
2020-10-04 14:00:00 25.1 11 Sudoeste 16 Sudoeste 0 -- -- 67
2020-10-04 13:00:00 23.7 16 Sudoeste 26 Sudoeste 0 -- -- 73
2020-10-04 12:00:00 24.7 2 Sudoeste 8 Sudoeste 0 -- -- 70
2020-10-04 11:00:00 23.3 7 Sudoeste 21 Sudoeste 0 -- -- 75
2020-10-04 10:00:00 23.1 12 Sudoeste 20 Sudoeste 0 -- -- 74
2020-10-04 09:00:00 22.3 7 Sudoeste 12 Oeste 0 -- -- 75
2020-10-04 08:00:00 21.6 6 Sudoeste 12 Sudoeste 0 -- -- 77
2020-10-04 07:00:00 21.8 4 Sudoeste 9 Sudoeste 0 -- -- 78
2020-10-04 06:00:00 21.9 5 Sudoeste 11 Sudoeste 0 -- -- 78
2020-10-04 05:00:00 22.3 7 Sudoeste 13 Sudoeste 0 -- -- 78
2020-10-04 04:00:00 22.4 7 Sudoeste 12 Sudoeste 0 -- -- 78
2020-10-04 03:00:00 22.5 6 Sudoeste 10 Sudoeste 0 -- -- 77
2020-10-04 02:00:00 22.7 7 Sudoeste 11 Sudoeste 0 -- -- 74
2020-10-04 01:00:00 23 9 Sudoeste 15 Sudoeste 0 -- -- 75
2020-10-04 00:00:00 23.2 13 Sudoeste 16 Sudoeste 0 -- -- 75
2020-10-03 23:00:00 23.2 9 Sudoeste 13 Sudoeste 0 -- -- 73
2020-10-03 22:00:00 23.3 11 Sudoeste 15 Sudoeste 0 -- -- 72
2020-10-03 21:00:00 23.3 13 Sudoeste 19 Sudoeste 0 -- -- 71
2020-10-03 20:00:00 23.9 16 Sudoeste 22 Sudoeste 0 -- -- 65
2020-10-03 19:00:00 25 21 Sudoeste 23 Sudoeste 0 -- -- 63
2020-10-03 18:00:00 25.5 10 Sudoeste 15 Sudoeste 0 -- -- 60
2020-10-03 17:00:00 26.7 9 Sudoeste 16 Oeste 0 -- -- 57
2020-10-03 16:00:00 26.2 12 Sudoeste 16 Sudoeste 0 -- -- 57
2020-10-03 15:00:00 25.6 10 Sudoeste 23 Sudoeste 0 -- -- 61
2020-10-03 14:00:00 26.6 16 Sudoeste 20 Sudoeste 0 -- -- 53
2020-10-03 13:00:00 26.2 11 Sudoeste 14 Sudoeste 0 -- -- 55
2020-10-03 12:00:00 25.2 7 Sudoeste 19 Sudoeste 0 -- -- 58
2020-10-03 11:00:00 23.7 17 Sudoeste 20 Sudoeste 0 -- -- 64
2020-10-03 10:00:00 24.9 12 Sudoeste 18 Sudoeste 0 -- -- 62
2020-10-03 09:00:00 23.9 5 Sudoeste 11 Sudoeste 0 -- -- 67
2020-10-03 08:00:00 21.4 2 Sudoeste 11 Sudoeste 0 -- -- 70
2020-10-03 07:00:00 21.5 6 Sudoeste 12 Sudoeste 0 -- -- 70
2020-10-03 06:00:00 21.3 6 Sudoeste 12 Sudoeste 0 -- -- 72
2020-10-03 05:00:00 21.2 8 Sudoeste 19 Sudoeste 0 -- -- 72
2020-10-03 04:00:00 21.7 6 Sudoeste 10 Sudoeste 0 -- -- 71
2020-10-03 03:00:00 22.5 7 Sudoeste 16 Sudoeste 0 -- -- 70
2020-10-03 02:00:00 22.4 11 Sudoeste 14 Sudoeste 0 -- -- 71
2020-10-03 01:00:00 22.2 0 Calma 8 Sudoeste 0 -- -- 71
2020-10-03 00:00:00 22.5 3 Sudoeste 20 Sudoeste 0 -- -- 70
2020-10-02 23:00:00 22.9 10 Sudoeste 21 Sudoeste 0 -- -- 71
2020-10-02 22:00:00 22.7 11 Sudoeste 15 Sudoeste 0 -- -- 73
2020-10-02 21:00:00 23 7 Sudoeste 26 Sudoeste 0 -- -- 71
2020-10-02 20:00:00 23.5 17 Sudoeste 31 Sudoeste 0 -- -- 65
2020-10-02 19:00:00 24.7 23 Sudoeste 27 Sudoeste 0 -- -- 56
2020-10-02 18:00:00 26.7 10 Sudoeste 15 Sudoeste 0 -- -- 51
2020-10-02 17:00:00 27.3 5 Sudoeste 10 Sudoeste 0 -- -- 50
2020-10-02 16:00:00 26.9 7 Sudoeste 19 Sudoeste 0 -- -- 51
2020-10-02 15:00:00 25.5 15 Sudoeste 24 Sudoeste 0 -- -- 55
2020-10-02 14:00:00 24.9 15 Sudoeste 22 Sudoeste 0 -- -- 54
2020-10-02 13:00:00 25.3 13 Sudoeste 19 Sudoeste 0 -- -- 57
2020-10-02 12:00:00 25.4 14 Sudoeste 19 Sudoeste 0 -- -- 59
2020-10-02 11:00:00 25.1 9 Sudoeste 14 Sudoeste 0 -- -- 60
2020-10-02 10:00:00 25.3 0 Calma 12 Sudoeste 0 -- -- 59
2020-10-02 09:00:00 21.9 9 Sudoeste 17 Sudoeste 0 -- -- 62
2020-10-02 08:00:00 20.5 12 Sudoeste 15 Sudoeste 0 -- -- 66
2020-10-02 07:00:00 20.8 11 Sudoeste 15 Sudoeste 0 -- -- 66
2020-10-02 06:00:00 20.7 12 Sudoeste 15 Sudoeste 0 -- -- 67
2020-10-02 05:00:00 20.9 11 Sudoeste 15 Sudoeste 0 -- -- 67
2020-10-02 04:00:00 21.5 8 Sudoeste 12 Sudoeste 0 -- -- 67
2020-10-02 03:00:00 21.5 9 Sudoeste 13 Sudoeste 0 -- -- 67
2020-10-02 02:00:00 22.5 5 Sudoeste 10 Sudoeste 0 -- -- 67
2020-10-02 01:00:00 22.9 7 Sudoeste 14 Sudoeste 0 -- -- 67
2020-10-02 00:00:00 23 8 Sudoeste 17 Sudoeste 0 -- -- 67
2020-10-01 23:00:00 23.2 6 Sudoeste 12 Sudoeste 0 -- -- 66
2020-10-01 22:00:00 23.5 7 Sudoeste 23 Sudoeste 0 -- -- 65
2020-10-01 21:00:00 23.3 9 Sudoeste 13 Sudoeste 0 -- -- 65
2020-10-01 20:00:00 23.5 7 Sudoeste 17 Oeste 0 -- -- 63
2020-10-01 19:00:00 24.7 9 Sudoeste 13 Sudoeste 0 -- -- 60
2020-10-01 18:00:00 25.4 9 Sudoeste 15 Sudoeste 0 -- -- 56
2020-10-01 17:00:00 25.9 10 Sudoeste 13 Sudoeste 0 -- -- 55
2020-10-01 16:00:00 25 13 Sudoeste 22 Sudoeste 0 -- -- 59
2020-10-01 15:00:00 24.7 15 Sudoeste 19 Sudoeste 0 -- -- 61
2020-10-01 14:00:00 25.1 12 Sudoeste 16 Sudoeste 0 -- -- 59
2020-10-01 13:00:00 26.1 9 Sudoeste 17 Sudoeste 0 -- -- 55
2020-10-01 12:00:00 26 6 Sudoeste 10 Sudoeste 0 -- -- 57
2020-10-01 11:00:00 26 5 Sudoeste 10 Sudoeste 0 -- -- 56
2020-10-01 10:00:00 24.4 4 Sudoeste 17 Sudoeste 0 -- -- 56
2020-10-01 09:00:00 21.1 11 Sudoeste 16 Sudoeste 0 -- -- 59
2020-10-01 08:00:00 20.9 11 Sudoeste 14 Sudoeste 0 -- -- 60
2020-10-01 07:00:00 21 12 Sudoeste 14 Sudoeste 0 -- -- 60
2020-10-01 06:00:00 21 12 Sudoeste 14 Sudoeste 0 -- -- 60
2020-10-01 05:00:00 21.3 10 Sudoeste 13 Sudoeste 0 -- -- 61
2020-10-01 04:00:00 21.6 10 Sudoeste 12 Sudoeste 0 -- -- 63
2020-10-01 03:00:00 21.9 6 Sudoeste 9 Sudoeste 0 -- -- 68
2020-10-01 02:00:00 22.3 5 Sudoeste 8 Sudoeste 0 -- -- 68
2020-10-01 01:00:00 22.7 4 Sudoeste 7 Sudoeste 0 -- -- 68
2020-10-01 00:00:00 22.7 0 Calma 6 Sudoeste 0 -- -- 67